ENRA Airport Information

Runway Information
Runway 13 Length 2759 ft width 98 ft Elevation 226 ft Threshold N/A Heading 136
Runway 31 Length 2759 ft Width 98 ft Elevation 220 ft Threshold N/A Heading 316
Airport Frequencies
Airport Navaids
Type NDB Name Strommen Frequency 345 KHZ
Airport Weather Information & NOTAM
ADDS - METARS form results

(1744 UTC 01 December 2022)
Data provider http://aviationweather.gov/metar/data/
 
METAR text: ENRA 011720Z VRB02KT CAVOK M10/M11 Q1037
Conditions at: ENRA (MOIRANA , NO) observed 1720 UTC 01 December 2022
Temperature: -10.0°C (14°F)
Dewpoint: -11.0°C (12°F) [RH = 92%]
Pressure (altimeter): 30.62 inches Hg (1037.0 mb)
Winds: variable direction winds at 2 MPH (2 knots; 1.0 m/s)
Visibility: 6 or more miles (10+ km)
Ceiling: ceiling and visibility are OK
Clouds: unknown
Weather: no significant weather observed at this time

METAR text: ENRA 011650Z 00000KT CAVOK M10/M11 Q1037
Conditions at: ENRA (MOIRANA , NO) observed 1650 UTC 01 December 2022
Temperature: -10.0°C (14°F)
Dewpoint: -11.0°C (12°F) [RH = 92%]
Pressure (altimeter): 30.62 inches Hg (1037.0 mb)
Winds: calm
Visibility: 6 or more miles (10+ km)
Ceiling: ceiling and visibility are OK
Clouds: unknown
Weather: no significant weather observed at this time

Forecast for: ENRA (MOIRANA , NO)
Text: TAF ENRA 011400Z 0115/0122 VRB03KT CAVOK
Forecast period: 1500 to 2200 UTC 01 December 2022
Forecast type: FROM: standard forecast or significant change
Winds: variable direction winds at 3 MPH (3 knots; 1.5 m/s)
Visibility: 6 or more miles (10+ km)
Ceiling: unknown
Clouds: missing
Weather: NSW  (no significant weather)